Time,TemperatureF,DewpointF,PressureIn,WindDirection,WindDirectionDegrees,WindSpeedMPH,WindSpeedGustMPH,Humidity,HourlyPrecipIn,Conditions,Clouds,dailyrainin,SoftwareType,DateUTC
2013-04-02 00:00:00,44.2,31.2,30.05,N/A,-737280,0.0,0.0,60,0.00,,,0.04,Wunderground v.1.13,2013-04-02 04:00:00,
2013-04-02 00:10:00,44.2,31.2,30.05,N/A,-737280,0.0,0.0,60,0.00,,,0.04,Wunderground v.1.13,2013-04-02 04:10:00,
2013-04-02 00:20:00,44.2,31.2,30.05,N/A,-737280,0.0,0.0,60,0.00,,,0.04,Wunderground v.1.13,2013-04-02 04:20:00,
2013-04-02 00:30:00,44.2,31.2,30.05,N/A,-737280,0.0,0.0,60,0.00,,,0.04,Wunderground v.1.13,2013-04-02 04:30:00,
2013-04-02 00:40:00,44.2,31.2,30.05,N/A,-737280,0.0,0.0,60,0.00,,,0.04,Wunderground v.1.13,2013-04-02 04:40:00,
2013-04-02 00:50:00,42.4,33.3,30.05,WNW,293,0.0,1.0,70,0.00,,,0.04,Wunderground v.1.13,2013-04-02 04:50:00,
2013-04-02 01:00:00,42.4,33.3,30.05,WNW,293,0.0,1.0,70,0.00,,,0.04,Wunderground v.1.13,2013-04-02 05:00:00,
2013-04-02 01:10:00,42.4,33.3,30.05,WNW,293,0.0,1.0,70,0.00,,,0.04,Wunderground v.1.13,2013-04-02 05:10:00,
2013-04-02 01:20:00,41.4,32.3,30.07,WNW,293,0.0,1.0,70,0.00,,,0.04,Wunderground v.1.13,2013-04-02 05:20:00,
2013-04-02 01:30:00,41.4,32.3,30.07,WNW,293,0.0,1.0,70,0.00,,,0.04,Wunderground v.1.13,2013-04-02 05:30:00,
2013-04-02 01:40:00,41.4,32.3,30.07,WNW,293,0.0,1.0,70,0.00,,,0.04,Wunderground v.1.13,2013-04-02 05:40:00,
2013-04-02 01:50:00,40.4,30.7,30.07,N/A,-737280,0.0,0.0,68,0.00,,,0.04,Wunderground v.1.13,2013-04-02 05:50:00,
2013-04-02 02:00:00,40.4,30.7,30.07,N/A,-737280,0.0,0.0,68,0.00,,,0.04,Wunderground v.1.13,2013-04-02 06:00:00,
2013-04-02 02:10:00,40.4,30.7,30.07,N/A,-737280,0.0,0.0,68,0.00,,,0.04,Wunderground v.1.13,2013-04-02 06:10:00,
2013-04-02 02:20:00,40.2,27.8,30.08,WNW,293,0.0,1.0,61,0.00,,,0.04,Wunderground v.1.13,2013-04-02 06:20:00,
2013-04-02 02:30:00,40.2,27.8,30.08,WNW,293,0.0,1.0,61,0.00,,,0.04,Wunderground v.1.13,2013-04-02 06:30:00,
2013-04-02 02:40:00,40.2,27.8,30.08,WNW,293,0.0,1.0,61,0.00,,,0.04,Wunderground v.1.13,2013-04-02 06:40:00,
2013-04-02 02:50:00,40.5,26.0,30.08,WNW,293,0.0,1.0,56,0.00,,,0.04,Wunderground v.1.13,2013-04-02 06:50:00,
2013-04-02 03:00:00,40.5,26.0,30.08,WNW,293,0.0,1.0,56,0.00,,,0.04,Wunderground v.1.13,2013-04-02 07:00:00,
2013-04-02 03:10:00,40.5,26.0,30.08,WNW,293,0.0,1.0,56,0.00,,,0.04,Wunderground v.1.13,2013-04-02 07:10:00,
2013-04-02 03:20:00,39.5,27.5,30.08,WNW,293,0.0,1.0,62,0.00,,,0.04,Wunderground v.1.13,2013-04-02 07:20:00,
2013-04-02 03:30:00,39.5,27.5,30.08,WNW,293,0.0,1.0,62,0.00,,,0.04,Wunderground v.1.13,2013-04-02 07:30:00,
2013-04-02 03:40:00,39.5,27.5,30.08,WNW,293,0.0,1.0,62,0.00,,,0.04,Wunderground v.1.13,2013-04-02 07:40:00,
2013-04-02 03:50:00,37.5,26.8,30.10,N/A,-737280,0.0,0.0,65,0.00,,,0.04,Wunderground v.1.13,2013-04-02 07:50:00,
2013-04-02 04:00:00,37.5,26.8,30.10,N/A,-737280,0.0,0.0,65,0.00,,,0.04,Wunderground v.1.13,2013-04-02 08:00:00,
2013-04-02 04:10:00,37.5,26.8,30.10,N/A,-737280,0.0,0.0,65,0.00,,,0.04,Wunderground v.1.13,2013-04-02 08:10:00,
2013-04-02 04:20:00,38.1,25.0,30.11,WNW,293,0.0,1.0,59,0.00,,,0.04,Wunderground v.1.13,2013-04-02 08:20:00,
2013-04-02 04:30:00,38.1,25.0,30.11,WNW,293,0.0,1.0,59,0.00,,,0.04,Wunderground v.1.13,2013-04-02 08:30:00,
2013-04-02 04:40:00,38.1,25.0,30.11,WNW,293,0.0,1.0,59,0.00,,,0.04,Wunderground v.1.13,2013-04-02 08:40:00,
2013-04-02 04:50:00,37.5,24.5,30.13,N/A,-737280,0.0,0.0,59,0.00,,,0.04,Wunderground v.1.13,2013-04-02 08:50:00,
2013-04-02 05:00:00,37.5,24.5,30.13,N/A,-737280,0.0,0.0,59,0.00,,,0.04,Wunderground v.1.13,2013-04-02 09:00:00,
2013-04-02 05:10:00,37.5,24.5,30.13,N/A,-737280,0.0,0.0,59,0.00,,,0.04,Wunderground v.1.13,2013-04-02 09:10:00,
2013-04-02 05:20:00,36.1,25.8,30.15,N/A,-737280,0.0,0.0,66,0.00,,,0.04,Wunderground v.1.13,2013-04-02 09:20:00,
2013-04-02 05:30:00,36.1,25.8,30.15,N/A,-737280,0.0,0.0,66,0.00,,,0.04,Wunderground v.1.13,2013-04-02 09:30:00,
2013-04-02 05:40:00,36.1,25.8,30.15,N/A,-737280,0.0,0.0,66,0.00,,,0.04,Wunderground v.1.13,2013-04-02 09:40:00,
2013-04-02 05:50:00,34.8,25.3,30.16,N/A,-737280,0.0,0.0,68,0.00,,,0.04,Wunderground v.1.13,2013-04-02 09:50:00,
2013-04-02 06:00:00,34.8,25.3,30.16,N/A,-737280,0.0,0.0,68,0.00,,,0.04,Wunderground v.1.13,2013-04-02 10:00:00,
2013-04-02 06:10:00,34.8,25.3,30.16,N/A,-737280,0.0,0.0,68,0.00,,,0.04,Wunderground v.1.13,2013-04-02 10:10:00,
2013-04-02 06:20:00,33.7,25.0,30.18,N/A,-737280,0.0,0.0,70,0.00,,,0.04,Wunderground v.1.13,2013-04-02 10:20:00,
2013-04-02 06:30:00,33.7,25.0,30.18,N/A,-737280,0.0,0.0,70,0.00,,,0.04,Wunderground v.1.13,2013-04-02 10:30:00,
2013-04-02 06:40:00,33.7,25.0,30.18,N/A,-737280,0.0,0.0,70,0.00,,,0.04,Wunderground v.1.13,2013-04-02 10:40:00,
2013-04-02 06:50:00,34.5,28.3,30.19,N/A,-737280,0.0,0.0,78,0.00,,,0.04,Wunderground v.1.13,2013-04-02 10:50:00,
2013-04-02 07:00:00,34.5,28.3,30.19,N/A,-737280,0.0,0.0,78,0.00,,,0.04,Wunderground v.1.13,2013-04-02 11:00:00,
2013-04-02 07:10:00,34.5,28.3,30.19,N/A,-737280,0.0,0.0,78,0.00,,,0.04,Wunderground v.1.13,2013-04-02 11:10:00,
2013-04-02 07:20:00,36.7,25.7,30.19,N/A,-737280,0.0,0.0,64,0.00,,,0.04,Wunderground v.1.13,2013-04-02 11:20:00,
2013-04-02 07:30:00,36.7,25.7,30.19,N/A,-737280,0.0,0.0,64,0.00,,,0.04,Wunderground v.1.13,2013-04-02 11:30:00,
2013-04-02 07:40:00,36.7,25.7,30.19,N/A,-737280,0.0,0.0,64,0.00,,,0.04,Wunderground v.1.13,2013-04-02 11:40:00,
2013-04-02 07:50:00,39.4,23.2,30.19,NW,315,0.0,2.0,52,0.01,,,0.04,Wunderground v.1.13,2013-04-02 11:50:00,
2013-04-02 08:00:00,39.4,23.2,30.19,NW,315,0.0,2.0,52,0.01,,,0.04,Wunderground v.1.13,2013-04-02 12:00:00,
2013-04-02 08:10:00,39.4,23.2,30.19,NW,315,0.0,2.0,52,0.01,,,0.04,Wunderground v.1.13,2013-04-02 12:10:00,
2013-04-02 08:20:00,41.0,23.3,30.20,NW,315,0.0,3.0,49,0.01,,,0.04,Wunderground v.1.13,2013-04-02 12:20:00,
2013-04-02 08:30:00,41.0,23.3,30.20,NW,315,0.0,3.0,49,0.01,,,0.04,Wunderground v.1.13,2013-04-02 12:30:00,
2013-04-02 08:40:00,41.0,23.3,30.20,NW,315,0.0,3.0,49,0.01,,,0.04,Wunderground v.1.13,2013-04-02 12:40:00,
2013-04-02 08:50:00,42.7,23.8,30.20,NW,315,0.0,3.0,47,0.01,,,0.04,Wunderground v.1.13,2013-04-02 12:50:00,
2013-04-02 09:00:00,42.7,23.8,30.20,NW,315,0.0,3.0,47,0.01,,,0.04,Wunderground v.1.13,2013-04-02 13:00:00,
2013-04-02 09:10:00,42.7,23.8,30.20,NW,315,0.0,3.0,47,0.01,,,0.04,Wunderground v.1.13,2013-04-02 13:10:00,
2013-04-02 09:20:00,44.2,23.6,30.20,NE,45,0.0,3.0,44,0.01,,,0.04,Wunderground v.1.13,2013-04-02 13:20:00,
2013-04-02 09:30:00,44.2,23.6,30.20,NE,45,0.0,3.0,44,0.01,,,0.04,Wunderground v.1.13,2013-04-02 13:30:00,
2013-04-02 09:40:00,44.2,23.6,30.20,NE,45,0.0,3.0,44,0.01,,,0.04,Wunderground v.1.13,2013-04-02 13:40:00,
2013-04-02 09:50:00,45.7,20.2,30.20,NW,315,1.0,4.0,36,0.00,,,0.04,Wunderground v.1.13,2013-04-02 13:50:00,
2013-04-02 10:00:00,45.7,20.2,30.20,NW,315,1.0,4.0,36,0.00,,,0.04,Wunderground v.1.13,2013-04-02 14:00:00,
2013-04-02 10:10:00,45.7,20.2,30.20,NW,315,1.0,4.0,36,0.00,,,0.04,Wunderground v.1.13,2013-04-02 14:10:00,
2013-04-02 10:20:00,47.0,22.7,30.20,WNW,293,0.0,3.0,38,0.00,,,0.04,Wunderground v.1.13,2013-04-02 14:20:00,
2013-04-02 10:30:00,47.0,22.7,30.20,WNW,293,0.0,3.0,38,0.00,,,0.04,Wunderground v.1.13,2013-04-02 14:30:00,
2013-04-02 10:40:00,47.0,22.7,30.20,WNW,293,0.0,3.0,38,0.00,,,0.04,Wunderground v.1.13,2013-04-02 14:40:00,
2013-04-02 10:50:00,47.3,20.3,30.20,WSW,248,1.0,5.0,34,0.00,,,0.04,Wunderground v.1.13,2013-04-02 14:50:00,
2013-04-02 11:00:00,47.3,20.3,30.20,WSW,248,1.0,5.0,34,0.00,,,0.04,Wunderground v.1.13,2013-04-02 15:00:00,
2013-04-02 11:10:00,47.3,20.3,30.20,WSW,248,1.0,5.0,34,0.00,,,0.04,Wunderground v.1.13,2013-04-02 15:10:00,
2013-04-02 11:20:00,48.5,17.6,30.18,WSW,248,1.0,4.0,29,0.00,,,0.04,Wunderground v.1.13,2013-04-02 15:20:00,
2013-04-02 11:30:00,48.5,17.6,30.18,WSW,248,1.0,4.0,29,0.00,,,0.04,Wunderground v.1.13,2013-04-02 15:30:00,
2013-04-02 11:40:00,48.5,17.6,30.18,WSW,248,1.0,4.0,29,0.00,,,0.04,Wunderground v.1.13,2013-04-02 15:40:00,
2013-04-02 11:50:00,49.7,20.2,30.17,WNW,293,1.0,4.0,31,0.00,,,0.04,Wunderground v.1.13,2013-04-02 15:50:00,
2013-04-02 12:00:00,49.7,20.2,30.17,WNW,293,1.0,4.0,31,0.00,,,0.04,Wunderground v.1.13,2013-04-02 16:00:00,
2013-04-02 12:10:00,49.7,20.2,30.17,WNW,293,1.0,4.0,31,0.00,,,0.04,Wunderground v.1.13,2013-04-02 16:10:00,
2013-04-02 12:20:00,51.9,18.9,30.16,WNW,293,1.0,4.0,27,0.01,,,0.04,Wunderground v.1.13,2013-04-02 16:20:00,
2013-04-02 12:30:00,51.9,18.9,30.16,WNW,293,1.0,4.0,27,0.01,,,0.04,Wunderground v.1.13,2013-04-02 16:30:00,
2013-04-02 12:40:00,51.9,18.9,30.16,WNW,293,1.0,4.0,27,0.01,,,0.04,Wunderground v.1.13,2013-04-02 16:40:00,
2013-04-02 12:50:00,52.1,19.9,30.15,NW,315,1.0,4.0,28,0.01,,,0.04,Wunderground v.1.13,2013-04-02 16:50:00,
2013-04-02 13:00:00,52.1,19.9,30.15,NW,315,1.0,4.0,28,0.01,,,0.04,Wunderground v.1.13,2013-04-02 17:00:00,
2013-04-02 13:10:00,52.1,19.9,30.15,NW,315,1.0,4.0,28,0.01,,,0.04,Wunderground v.1.13,2013-04-02 17:10:00,
2013-04-02 13:20:00,54.0,21.6,30.14,WSW,248,1.0,10.0,28,0.00,,,0.04,Wunderground v.1.13,2013-04-02 17:20:00,
2013-04-02 13:30:00,54.0,21.6,30.14,WSW,248,1.0,10.0,28,0.00,,,0.04,Wunderground v.1.13,2013-04-02 17:30:00,
2013-04-02 13:40:00,54.0,21.6,30.14,WSW,248,1.0,10.0,28,0.00,,,0.04,Wunderground v.1.13,2013-04-02 17:40:00,
2013-04-02 13:50:00,54.0,19.8,30.13,WNW,293,1.0,6.0,26,0.00,,,0.04,Wunderground v.1.13,2013-04-02 17:50:00,
2013-04-02 14:00:00,54.0,19.8,30.13,WNW,293,1.0,6.0,26,0.00,,,0.04,Wunderground v.1.13,2013-04-02 18:00:00,
2013-04-02 14:10:00,54.0,19.8,30.13,WNW,293,1.0,6.0,26,0.00,,,0.04,Wunderground v.1.13,2013-04-02 18:10:00,
2013-04-02 14:20:00,54.4,19.3,30.12,NW,315,1.0,5.0,25,0.00,,,0.04,Wunderground v.1.13,2013-04-02 18:20:00,
2013-04-02 14:30:00,54.4,19.3,30.12,NW,315,1.0,5.0,25,0.00,,,0.04,Wunderground v.1.13,2013-04-02 18:30:00,
2013-04-02 14:40:00,54.4,19.3,30.12,NW,315,1.0,5.0,25,0.00,,,0.04,Wunderground v.1.13,2013-04-02 18:40:00,
2013-04-02 14:50:00,55.2,18.0,30.11,WSW,248,1.0,6.0,23,0.01,,,0.04,Wunderground v.1.13,2013-04-02 18:50:00,
2013-04-02 15:00:00,55.2,18.0,30.11,WSW,248,1.0,6.0,23,0.01,,,0.04,Wunderground v.1.13,2013-04-02 19:00:00,
2013-04-02 15:10:00,55.2,18.0,30.11,WSW,248,1.0,6.0,23,0.01,,,0.04,Wunderground v.1.13,2013-04-02 19:10:00,
2013-04-02 15:20:00,54.1,17.1,30.11,WNW,293,1.0,4.0,23,0.01,,,0.04,Wunderground v.1.13,2013-04-02 19:20:00,
2013-04-02 15:30:00,54.1,17.1,30.11,WNW,293,1.0,4.0,23,0.01,,,0.04,Wunderground v.1.13,2013-04-02 19:30:00,
2013-04-02 15:40:00,54.1,17.1,30.11,WNW,293,1.0,4.0,23,0.01,,,0.04,Wunderground v.1.13,2013-04-02 19:40:00,
2013-04-02 15:50:00,52.7,18.7,30.13,WSW,248,1.0,5.0,26,0.00,,,0.04,Wunderground v.1.13,2013-04-02 19:50:00,
2013-04-02 16:00:00,52.7,18.7,30.13,WSW,248,1.0,5.0,26,0.00,,,0.04,Wunderground v.1.13,2013-04-02 20:00:00,
2013-04-02 16:10:00,52.7,18.7,30.13,WSW,248,1.0,5.0,26,0.00,,,0.04,Wunderground v.1.13,2013-04-02 20:10:00,
2013-04-02 16:20:00,52.4,17.6,30.13,WNW,293,0.0,4.0,25,0.00,,,0.04,Wunderground v.1.13,2013-04-02 20:20:00,
2013-04-02 16:30:00,52.4,17.6,30.13,WNW,293,0.0,4.0,25,0.00,,,0.04,Wunderground v.1.13,2013-04-02 20:30:00,
2013-04-02 16:40:00,52.4,17.6,30.13,WNW,293,0.0,4.0,25,0.00,,,0.04,Wunderground v.1.13,2013-04-02 20:40:00,
2013-04-02 16:50:00,53.0,19.9,30.13,West,270,0.0,5.0,27,0.00,,,0.04,Wunderground v.1.13,2013-04-02 20:50:00,
2013-04-02 17:00:00,53.0,19.9,30.13,West,270,0.0,5.0,27,0.00,,,0.04,Wunderground v.1.13,2013-04-02 21:00:00,
2013-04-02 17:10:00,53.0,19.9,30.13,West,270,0.0,5.0,27,0.00,,,0.04,Wunderground v.1.13,2013-04-02 21:10:00,
2013-04-02 17:20:00,52.2,17.4,30.13,West,270,0.0,3.0,25,0.00,,,0.04,Wunderground v.1.13,2013-04-02 21:20:00,
2013-04-02 17:30:00,52.2,17.4,30.13,West,270,0.0,3.0,25,0.00,,,0.04,Wunderground v.1.13,2013-04-02 21:30:00,
2013-04-02 17:40:00,52.2,17.4,30.13,West,270,0.0,3.0,25,0.00,,,0.04,Wunderground v.1.13,2013-04-02 21:40:00,
2013-04-02 17:50:00,51.5,21.0,30.12,WNW,293,0.0,2.0,30,0.00,,,0.04,Wunderground v.1.13,2013-04-02 21:50:00,
2013-04-02 18:00:00,51.5,21.0,30.12,WNW,293,0.0,2.0,30,0.00,,,0.04,Wunderground v.1.13,2013-04-02 22:00:00,
2013-04-02 18:10:00,51.5,21.0,30.12,WNW,293,0.0,2.0,30,0.00,,,0.04,Wunderground v.1.13,2013-04-02 22:10:00,
2013-04-02 18:20:00,49.8,23.9,30.12,N/A,-737280,0.0,0.0,36,0.00,,,0.04,Wunderground v.1.13,2013-04-02 22:20:00,
2013-04-02 18:30:00,49.8,23.9,30.12,N/A,-737280,0.0,0.0,36,0.00,,,0.04,Wunderground v.1.13,2013-04-02 22:30:00,
2013-04-02 18:40:00,49.8,23.9,30.12,N/A,-737280,0.0,0.0,36,0.00,,,0.04,Wunderground v.1.13,2013-04-02 22:40:00,
2013-04-02 18:50:00,49.0,26.9,30.14,N/A,-737280,0.0,0.0,42,0.00,,,0.04,Wunderground v.1.13,2013-04-02 22:50:00,
2013-04-02 19:00:00,49.0,26.9,30.14,N/A,-737280,0.0,0.0,42,0.00,,,0.04,Wunderground v.1.13,2013-04-02 23:00:00,
2013-04-02 19:10:00,49.0,26.9,30.14,N/A,-737280,0.0,0.0,42,0.00,,,0.04,Wunderground v.1.13,2013-04-02 23:10:00,
2013-04-02 19:20:00,49.3,24.1,30.13,N/A,-737280,0.0,0.0,37,0.00,,,0.04,Wunderground v.1.13,2013-04-02 23:20:00,
2013-04-02 19:30:00,49.3,24.1,30.13,N/A,-737280,0.0,0.0,37,0.00,,,0.04,Wunderground v.1.13,2013-04-02 23:30:00,
2013-04-02 19:40:00,49.3,24.1,30.13,N/A,-737280,0.0,0.0,37,0.00,,,0.04,Wunderground v.1.13,2013-04-02 23:40:00,
2013-04-02 19:50:00,48.5,28.1,30.13,N/A,-737280,0.0,0.0,45,0.00,,,0.04,Wunderground v.1.13,2013-04-02 23:50:00,
2013-04-02 20:00:00,48.5,28.1,30.13,N/A,-737280,0.0,0.0,45,0.00,,,0.04,Wunderground v.1.13,2013-04-03 00:00:00,
2013-04-02 20:10:00,48.5,28.1,30.13,N/A,-737280,0.0,0.0,45,0.00,,,0.04,Wunderground v.1.13,2013-04-03 00:10:00,
2013-04-02 20:20:00,47.9,27.0,30.14,N/A,-737280,0.0,0.0,44,0.00,,,0.04,Wunderground v.1.13,2013-04-03 00:20:00,
2013-04-02 20:30:00,47.9,27.0,30.14,N/A,-737280,0.0,0.0,44,0.00,,,0.04,Wunderground v.1.13,2013-04-03 00:30:00,
2013-04-02 20:40:00,47.9,27.0,30.14,N/A,-737280,0.0,0.0,44,0.00,,,0.04,Wunderground v.1.13,2013-04-03 00:40:00,
2013-04-02 20:50:00,47.3,31.0,30.15,N/A,-737280,0.0,0.0,53,0.00,,,0.04,Wunderground v.1.13,2013-04-03 00:50:00,
2013-04-02 21:00:00,47.3,31.0,30.15,N/A,-737280,0.0,0.0,53,0.00,,,0.04,Wunderground v.1.13,2013-04-03 01:00:00,
2013-04-02 21:10:00,47.3,31.0,30.15,N/A,-737280,0.0,0.0,53,0.00,,,0.04,Wunderground v.1.13,2013-04-03 01:10:00,
2013-04-02 21:20:00,46.4,30.2,30.16,N/A,-737280,0.0,0.0,53,0.00,,,0.04,Wunderground v.1.13,2013-04-03 01:20:00,
2013-04-02 21:30:00,46.4,30.2,30.16,N/A,-737280,0.0,0.0,53,0.00,,,0.04,Wunderground v.1.13,2013-04-03 01:30:00,
2013-04-02 21:40:00,46.4,30.2,30.16,N/A,-737280,0.0,0.0,53,0.00,,,0.04,Wunderground v.1.13,2013-04-03 01:40:00,
2013-04-02 21:50:00,45.9,24.6,30.17,N/A,-737280,0.0,0.0,43,0.00,,,0.04,Wunderground v.1.13,2013-04-03 01:50:00,
2013-04-02 22:00:00,45.9,24.6,30.17,N/A,-737280,0.0,0.0,43,0.00,,,0.04,Wunderground v.1.13,2013-04-03 02:00:00,
2013-04-02 22:10:00,45.9,24.6,30.17,N/A,-737280,0.0,0.0,43,0.00,,,0.04,Wunderground v.1.13,2013-04-03 02:10:00,
2013-04-02 22:20:00,45.9,23.5,30.17,WNW,293,0.0,1.0,41,0.00,,,0.04,Wunderground v.1.13,2013-04-03 02:20:00,
2013-04-02 22:30:00,45.9,23.5,30.17,WNW,293,0.0,1.0,41,0.00,,,0.04,Wunderground v.1.13,2013-04-03 02:30:00,
2013-04-02 22:40:00,45.9,23.5,30.17,WNW,293,0.0,1.0,41,0.00,,,0.04,Wunderground v.1.13,2013-04-03 02:40:00,
2013-04-02 22:50:00,44.2,24.7,30.17,N/A,-737280,0.0,0.0,46,0.00,,,0.04,Wunderground v.1.13,2013-04-03 02:50:00,
2013-04-02 23:00:00,44.2,24.7,30.17,N/A,-737280,0.0,0.0,46,0.00,,,0.04,Wunderground v.1.13,2013-04-03 03:00:00,
2013-04-02 23:10:00,44.2,24.7,30.17,N/A,-737280,0.0,0.0,46,0.00,,,0.04,Wunderground v.1.13,2013-04-03 03:10:00,
2013-04-02 23:20:00,43.5,23.5,30.17,N/A,-737280,0.0,0.0,45,0.00,,,0.04,Wunderground v.1.13,2013-04-03 03:20:00,
2013-04-02 23:30:00,43.5,23.5,30.17,N/A,-737280,0.0,0.0,45,0.00,,,0.04,Wunderground v.1.13,2013-04-03 03:30:00,
2013-04-02 23:40:00,43.5,23.5,30.17,N/A,-737280,0.0,0.0,45,0.00,,,0.04,Wunderground v.1.13,2013-04-03 03:40:00,
2013-04-02 23:50:00,43.0,26.6,30.19,N/A,-737280,0.0,0.0,52,0.00,,,0.04,Wunderground v.1.13,2013-04-03 03:50:00,